sensor_id;sensor_type;location;lat;lon;timestamp;P1;P2;P0
50589;PMS7003;36547;50.514;30.840;2024-01-25T00:00:01;14.30;13.10;9.60
50589;PMS7003;36547;50.514;30.840;2024-01-25T00:01:05;7.70;7.30;3.50
50589;PMS7003;36547;50.514;30.840;2024-01-25T00:02:07;13.90;13.90;8.70
50589;PMS7003;36547;50.514;30.840;2024-01-25T00:03:09;17.40;15.80;10.30
50589;PMS7003;36547;50.514;30.840;2024-01-25T00:04:13;12.60;12.60;9.40
50589;PMS7003;36547;50.514;30.840;2024-01-25T00:05:15;14.50;14.30;9.30
50589;PMS7003;36547;50.514;30.840;2024-01-25T00:06:18;12.80;12.60;8.80
50589;PMS7003;36547;50.514;30.840;2024-01-25T00:07:21;14.30;12.50;9.20
50589;PMS7003;36547;50.514;30.840;2024-01-25T00:08:23;14.10;13.40;9.00
50589;PMS7003;36547;50.514;30.840;2024-01-25T00:09:25;12.10;12.00;8.20
50589;PMS7003;36547;50.514;30.840;2024-01-25T00:10:30;15.30;15.30;9.60
50589;PMS7003;36547;50.514;30.840;2024-01-25T00:11:32;15.30;14.40;10.20
50589;PMS7003;36547;50.514;30.840;2024-01-25T00:12:34;15.30;14.80;9.10
50589;PMS7003;36547;50.514;30.840;2024-01-25T00:13:36;12.70;12.10;8.20
50589;PMS7003;36547;50.514;30.840;2024-01-25T00:14:39;15.70;15.70;10.50
50589;PMS7003;36547;50.514;30.840;2024-01-25T00:15:41;14.00;14.00;9.10
50589;PMS7003;36547;50.514;30.840;2024-01-25T00:16:44;14.55;14.55;9.91
50589;PMS7003;36547;50.514;30.840;2024-01-25T00:17:47;15.80;15.30;11.20
50589;PMS7003;36547;50.514;30.840;2024-01-25T00:18:49;15.80;15.20;10.10
50589;PMS7003;36547;50.514;30.840;2024-01-25T00:19:52;16.30;15.10;10.80
50589;PMS7003;36547;50.514;30.840;2024-01-25T00:20:55;15.09;13.73;10.45
50589;PMS7003;36547;50.514;30.840;2024-01-25T00:21:59;14.10;13.90;10.10
50589;PMS7003;36547;50.514;30.840;2024-01-25T00:23:02;12.73;12.09;9.00
50589;PMS7003;36547;50.514;30.840;2024-01-25T00:24:04;9.60;9.60;6.70
50589;PMS7003;36547;50.514;30.840;2024-01-25T00:25:08;13.50;13.10;9.40
50589;PMS7003;36547;50.514;30.840;2024-01-25T00:26:11;12.20;11.60;9.00
50589;PMS7003;36547;50.514;30.840;2024-01-25T00:27:14;14.10;13.30;9.70
50589;PMS7003;36547;50.514;30.840;2024-01-25T00:28:22;13.40;13.20;9.20
50589;PMS7003;36547;50.514;30.840;2024-01-25T00:29:26;11.10;10.60;8.40
50589;PMS7003;36547;50.514;30.840;2024-01-25T00:30:30;14.50;14.50;9.50
50589;PMS7003;36547;50.514;30.840;2024-01-25T00:31:37;15.30;14.30;9.90
50589;PMS7003;36547;50.514;30.840;2024-01-25T00:32:41;14.90;12.50;9.20
50589;PMS7003;36547;50.514;30.840;2024-01-25T00:33:46;15.10;14.90;9.40
50589;PMS7003;36547;50.514;30.840;2024-01-25T00:34:50;10.70;10.70;8.10
50589;PMS7003;36547;50.514;30.840;2024-01-25T00:35:56;14.20;13.80;9.20
50589;PMS7003;36547;50.514;30.840;2024-01-25T00:37:00;11.60;11.60;8.60
50589;PMS7003;36547;50.514;30.840;2024-01-25T00:38:05;10.80;10.40;6.90
50589;PMS7003;36547;50.514;30.840;2024-01-25T00:39:09;10.10;10.10;8.30
50589;PMS7003;36547;50.514;30.840;2024-01-25T00:40:13;10.50;10.50;8.10
50589;PMS7003;36547;50.514;30.840;2024-01-25T00:41:17;12.50;10.40;7.40
50589;PMS7003;36547;50.514;30.840;2024-01-25T00:42:26;11.00;11.00;8.30
50589;PMS7003;36547;50.514;30.840;2024-01-25T00:43:35;8.70;8.50;6.70
50589;PMS7003;36547;50.514;30.840;2024-01-25T00:44:38;11.80;11.60;9.60
50589;PMS7003;36547;50.514;30.840;2024-01-25T00:45:49;12.10;11.30;7.70
50589;PMS7003;36547;50.514;30.840;2024-01-25T00:46:53;12.50;11.20;8.30
50589;PMS7003;36547;50.514;30.840;2024-01-25T00:47:59;12.40;11.70;9.50
50589;PMS7003;36547;50.514;30.840;2024-01-25T00:49:05;10.80;10.80;7.70
50589;PMS7003;36547;50.514;30.840;2024-01-25T00:50:09;14.60;13.30;9.30
50589;PMS7003;36547;50.514;30.840;2024-01-25T00:51:20;12.40;11.40;8.30
50589;PMS7003;36547;50.514;30.840;2024-01-25T00:52:23;12.20;12.10;8.20
50589;PMS7003;36547;50.514;30.840;2024-01-25T00:53:26;12.80;12.50;8.80
50589;PMS7003;36547;50.514;30.840;2024-01-25T00:54:37;13.60;12.60;9.10
50589;PMS7003;36547;50.514;30.840;2024-01-25T00:55:59;13.70;13.70;8.80
50589;PMS7003;36547;50.514;30.840;2024-01-25T00:57:03;9.70;9.70;7.30
50589;PMS7003;36547;50.514;30.840;2024-01-25T00:58:08;12.90;12.50;8.70
50589;PMS7003;36547;50.514;30.840;2024-01-25T00:59:11;10.70;10.70;7.50
50589;PMS7003;36547;50.514;30.840;2024-01-25T01:00:16;13.80;13.20;10.40
50589;PMS7003;36547;50.514;30.840;2024-01-25T01:01:21;13.30;12.40;8.30
50589;PMS7003;36547;50.514;30.840;2024-01-25T01:02:26;12.30;12.30;9.40
50589;PMS7003;36547;50.514;30.840;2024-01-25T01:03:44;17.40;16.30;11.00
50589;PMS7003;36547;50.514;30.840;2024-01-25T01:04:47;13.80;13.80;10.00
50589;PMS7003;36547;50.514;30.840;2024-01-25T01:05:50;12.20;11.90;9.10
50589;PMS7003;36547;50.514;30.840;2024-01-25T01:06:54;13.40;13.40;9.70
50589;PMS7003;36547;50.514;30.840;2024-01-25T01:07:56;13.70;13.50;8.40
50589;PMS7003;36547;50.514;30.840;2024-01-25T01:08:59;12.90;12.90;9.80
50589;PMS7003;36547;50.514;30.840;2024-01-25T01:10:01;11.80;11.80;9.10
50589;PMS7003;36547;50.514;30.840;2024-01-25T01:11:04;14.60;14.60;9.30
50589;PMS7003;36547;50.514;30.840;2024-01-25T01:12:08;14.10;14.10;9.70
50589;PMS7003;36547;50.514;30.840;2024-01-25T01:13:11;15.80;15.80;10.70
50589;PMS7003;36547;50.514;30.840;2024-01-25T01:14:13;12.70;12.70;9.70
50589;PMS7003;36547;50.514;30.840;2024-01-25T01:15:16;10.40;10.40;8.90
50589;PMS7003;36547;50.514;30.840;2024-01-25T01:16:21;14.10;13.90;9.20
50589;PMS7003;36547;50.514;30.840;2024-01-25T01:17:23;12.60;12.00;9.30
50589;PMS7003;36547;50.514;30.840;2024-01-25T01:18:25;11.60;11.60;8.50
50589;PMS7003;36547;50.514;30.840;2024-01-25T01:19:28;14.90;14.90;10.20
50589;PMS7003;36547;50.514;30.840;2024-01-25T01:20:30;14.70;14.50;9.10
50589;PMS7003;36547;50.514;30.840;2024-01-25T01:21:33;13.60;13.00;9.40
50589;PMS7003;36547;50.514;30.840;2024-01-25T01:22:36;12.60;12.60;9.00
50589;PMS7003;36547;50.514;30.840;2024-01-25T01:23:38;13.90;12.60;8.10
50589;PMS7003;36547;50.514;30.840;2024-01-25T01:24:40;15.60;14.30;9.00
50589;PMS7003;36547;50.514;30.840;2024-01-25T01:25:43;13.40;12.40;8.60
50589;PMS7003;36547;50.514;30.840;2024-01-25T01:26:45;13.70;13.70;9.20
50589;PMS7003;36547;50.514;30.840;2024-01-25T01:27:48;14.60;14.60;10.20
50589;PMS7003;36547;50.514;30.840;2024-01-25T01:28:50;13.10;13.10;10.10
50589;PMS7003;36547;50.514;30.840;2024-01-25T01:29:52;14.40;13.60;10.20
50589;PMS7003;36547;50.514;30.840;2024-01-25T01:30:55;13.80;12.90;9.90
50589;PMS7003;36547;50.514;30.840;2024-01-25T01:31:57;11.00;11.00;8.80
50589;PMS7003;36547;50.514;30.840;2024-01-25T01:32:59;14.70;14.20;9.00
50589;PMS7003;36547;50.514;30.840;2024-01-25T01:34:02;12.40;12.40;8.60
50589;PMS7003;36547;50.514;30.840;2024-01-25T01:35:05;12.80;11.80;9.20
50589;PMS7003;36547;50.514;30.840;2024-01-25T01:36:09;13.70;11.90;9.40
50589;PMS7003;36547;50.514;30.840;2024-01-25T01:37:12;12.45;12.09;8.45
50589;PMS7003;36547;50.514;30.840;2024-01-25T01:38:14;14.00;13.90;9.50
50589;PMS7003;36547;50.514;30.840;2024-01-25T01:39:17;15.50;14.40;9.10
50589;PMS7003;36547;50.514;30.840;2024-01-25T01:40:20;10.73;10.73;8.18
50589;PMS7003;36547;50.514;30.840;2024-01-25T01:41:23;10.60;10.40;8.20
50589;PMS7003;36547;50.514;30.840;2024-01-25T01:42:26;14.70;14.50;10.30
50589;PMS7003;36547;50.514;30.840;2024-01-25T01:43:30;14.40;13.50;9.50
50589;PMS7003;36547;50.514;30.840;2024-01-25T01:44:32;11.50;10.70;7.90
50589;PMS7003;36547;50.514;30.840;2024-01-25T01:45:34;13.70;12.90;8.80
50589;PMS7003;36547;50.514;30.840;2024-01-25T01:46:38;13.60;12.80;9.40
50589;PMS7003;36547;50.514;30.840;2024-01-25T01:47:41;15.50;15.10;9.10
50589;PMS7003;36547;50.514;30.840;2024-01-25T01:48:44;11.20;11.20;8.40
50589;PMS7003;36547;50.514;30.840;2024-01-25T01:49:47;11.10;11.10;8.20
50589;PMS7003;36547;50.514;30.840;2024-01-25T01:50:52;12.90;12.00;9.40
50589;PMS7003;36547;50.514;30.840;2024-01-25T01:51:55;10.90;10.90;8.50
50589;PMS7003;36547;50.514;30.840;2024-01-25T01:52:58;12.36;11.18;8.36
50589;PMS7003;36547;50.514;30.840;2024-01-25T01:54:01;14.30;12.80;9.40
50589;PMS7003;36547;50.514;30.840;2024-01-25T01:55:04;11.10;10.40;8.30
50589;PMS7003;36547;50.514;30.840;2024-01-25T01:57:25;14.00;14.00;8.80
50589;PMS7003;36547;50.514;30.840;2024-01-25T01:58:30;13.70;13.30;9.40
50589;PMS7003;36547;50.514;30.840;2024-01-25T01:59:33;13.60;13.60;10.10
50589;PMS7003;36547;50.514;30.840;2024-01-25T02:00:36;14.70;12.30;9.50
50589;PMS7003;36547;50.514;30.840;2024-01-25T02:01:40;14.90;14.90;9.90
50589;PMS7003;36547;50.514;30.840;2024-01-25T02:02:43;11.27;11.27;8.18
50589;PMS7003;36547;50.514;30.840;2024-01-25T02:03:46;15.64;14.09;9.09
50589;PMS7003;36547;50.514;30.840;2024-01-25T02:04:49;15.55;13.91;10.18
50589;PMS7003;36547;50.514;30.840;2024-01-25T02:05:53;11.00;10.80;8.70
50589;PMS7003;36547;50.514;30.840;2024-01-25T02:06:56;12.10;12.10;9.20
50589;PMS7003;36547;50.514;30.840;2024-01-25T02:07:59;13.00;13.00;9.40
50589;PMS7003;36547;50.514;30.840;2024-01-25T02:09:01;11.90;11.30;10.10
50589;PMS7003;36547;50.514;30.840;2024-01-25T02:10:05;12.27;11.45;8.55
50589;PMS7003;36547;50.514;30.840;2024-01-25T02:11:11;11.20;10.30;7.60
50589;PMS7003;36547;50.514;30.840;2024-01-25T02:12:16;12.70;12.70;9.60
50589;PMS7003;36547;50.514;30.840;2024-01-25T02:13:20;15.60;15.10;9.80
50589;PMS7003;36547;50.514;30.840;2024-01-25T02:14:23;13.80;13.40;10.00
50589;PMS7003;36547;50.514;30.840;2024-01-25T02:15:26;14.90;14.40;10.00
50589;PMS7003;36547;50.514;30.840;2024-01-25T02:16:29;18.27;17.73;11.55
50589;PMS7003;36547;50.514;30.840;2024-01-25T02:17:31;18.60;18.60;12.90
50589;PMS7003;36547;50.514;30.840;2024-01-25T02:18:34;17.60;17.60;11.20
50589;PMS7003;36547;50.514;30.840;2024-01-25T02:19:36;16.60;16.50;10.30
50589;PMS7003;36547;50.514;30.840;2024-01-25T02:20:39;17.50;16.50;10.90
50589;PMS7003;36547;50.514;30.840;2024-01-25T02:21:42;15.30;14.70;9.50
50589;PMS7003;36547;50.514;30.840;2024-01-25T02:22:44;17.60;17.00;12.40
50589;PMS7003;36547;50.514;30.840;2024-01-25T02:23:47;16.20;16.20;11.90
50589;PMS7003;36547;50.514;30.840;2024-01-25T02:24:49;16.50;16.30;10.10
50589;PMS7003;36547;50.514;30.840;2024-01-25T02:25:52;17.90;17.20;11.10
50589;PMS7003;36547;50.514;30.840;2024-01-25T02:26:55;20.50;19.20;12.00
50589;PMS7003;36547;50.514;30.840;2024-01-25T02:27:57;19.80;18.20;11.70
50589;PMS7003;36547;50.514;30.840;2024-01-25T02:29:00;18.10;17.60;10.90
50589;PMS7003;36547;50.514;30.840;2024-01-25T02:30:02;15.00;14.40;11.00
50589;PMS7003;36547;50.514;30.840;2024-01-25T02:31:04;10.10;9.50;4.00
50589;PMS7003;36547;50.514;30.840;2024-01-25T02:32:07;21.90;18.50;11.40
50589;PMS7003;36547;50.514;30.840;2024-01-25T02:33:09;22.11;20.89;12.33
50589;PMS7003;36547;50.514;30.840;2024-01-25T02:34:11;17.20;16.80;11.20
50589;PMS7003;36547;50.514;30.840;2024-01-25T02:35:14;16.27;16.27;10.45
50589;PMS7003;36547;50.514;30.840;2024-01-25T02:36:18;13.10;12.40;9.30
50589;PMS7003;36547;50.514;30.840;2024-01-25T02:37:20;13.70;13.10;9.70
50589;PMS7003;36547;50.514;30.840;2024-01-25T02:38:22;14.80;14.70;9.90
50589;PMS7003;36547;50.514;30.840;2024-01-25T02:39:24;17.80;15.60;10.30
50589;PMS7003;36547;50.514;30.840;2024-01-25T02:40:27;14.20;14.20;9.70
50589;PMS7003;36547;50.514;30.840;2024-01-25T02:41:30;15.70;15.50;11.50
50589;PMS7003;36547;50.514;30.840;2024-01-25T02:42:33;14.10;13.60;9.40
50589;PMS7003;36547;50.514;30.840;2024-01-25T02:43:35;9.90;9.60;7.20
50589;PMS7003;36547;50.514;30.840;2024-01-25T02:44:37;15.00;13.10;9.40
50589;PMS7003;36547;50.514;30.840;2024-01-25T02:45:40;14.70;14.40;10.20
50589;PMS7003;36547;50.514;30.840;2024-01-25T02:46:44;15.00;14.80;10.40
50589;PMS7003;36547;50.514;30.840;2024-01-25T02:47:46;13.40;12.90;9.60
50589;PMS7003;36547;50.514;30.840;2024-01-25T02:48:49;16.91;16.09;10.91
50589;PMS7003;36547;50.514;30.840;2024-01-25T02:49:52;16.10;15.90;9.70
50589;PMS7003;36547;50.514;30.840;2024-01-25T02:50:55;16.80;15.70;10.80
50589;PMS7003;36547;50.514;30.840;2024-01-25T02:51:57;17.50;17.50;10.70
50589;PMS7003;36547;50.514;30.840;2024-01-25T02:53:00;18.60;18.40;12.10
50589;PMS7003;36547;50.514;30.840;2024-01-25T02:54:02;18.60;18.40;12.60
50589;PMS7003;36547;50.514;30.840;2024-01-25T02:55:04;21.50;21.30;14.20
50589;PMS7003;36547;50.514;30.840;2024-01-25T02:56:08;20.60;20.00;12.60
50589;PMS7003;36547;50.514;30.840;2024-01-25T02:57:11;22.73;19.64;14.55
50589;PMS7003;36547;50.514;30.840;2024-01-25T02:58:13;21.50;19.60;13.00
50589;PMS7003;36547;50.514;30.840;2024-01-25T02:59:16;20.40;19.80;14.30
50589;PMS7003;36547;50.514;30.840;2024-01-25T03:00:18;10.00;9.50;4.30
50589;PMS7003;36547;50.514;30.840;2024-01-25T03:01:21;21.10;21.10;14.00
50589;PMS7003;36547;50.514;30.840;2024-01-25T03:02:24;22.00;19.60;14.40
50589;PMS7003;36547;50.514;30.840;2024-01-25T03:03:26;21.50;21.50;13.50
50589;PMS7003;36547;50.514;30.840;2024-01-25T03:04:28;21.90;21.00;14.60
50589;PMS7003;36547;50.514;30.840;2024-01-25T03:05:31;20.70;19.60;14.20
50589;PMS7003;36547;50.514;30.840;2024-01-25T03:06:34;23.73;21.64;14.73
50589;PMS7003;36547;50.514;30.840;2024-01-25T03:07:37;21.00;20.70;13.20
50589;PMS7003;36547;50.514;30.840;2024-01-25T03:08:39;18.50;18.50;13.50
50589;PMS7003;36547;50.514;30.840;2024-01-25T03:09:41;23.80;17.50;12.70
50589;PMS7003;36547;50.514;30.840;2024-01-25T03:10:44;17.55;16.00;11.27
50589;PMS7003;36547;50.514;30.840;2024-01-25T03:11:48;18.30;18.30;12.50
50589;PMS7003;36547;50.514;30.840;2024-01-25T03:12:51;20.18;17.36;13.36
50589;PMS7003;36547;50.514;30.840;2024-01-25T03:13:53;17.80;17.10;11.40
50589;PMS7003;36547;50.514;30.840;2024-01-25T03:14:56;17.40;17.40;12.20
50589;PMS7003;36547;50.514;30.840;2024-01-25T03:15:58;17.50;15.20;11.00
50589;PMS7003;36547;50.514;30.840;2024-01-25T03:17:00;13.90;13.20;8.30
50589;PMS7003;36547;50.514;30.840;2024-01-25T03:18:03;20.00;17.90;12.00
50589;PMS7003;36547;50.514;30.840;2024-01-25T03:19:06;16.20;16.20;11.70
50589;PMS7003;36547;50.514;30.840;2024-01-25T03:20:09;18.70;18.10;12.40
50589;PMS7003;36547;50.514;30.840;2024-01-25T03:21:12;14.40;14.30;10.40
50589;PMS7003;36547;50.514;30.840;2024-01-25T03:22:14;15.30;14.90;10.30
50589;PMS7003;36547;50.514;30.840;2024-01-25T03:23:17;16.50;16.50;11.00
50589;PMS7003;36547;50.514;30.840;2024-01-25T03:24:19;15.00;14.30;11.20
50589;PMS7003;36547;50.514;30.840;2024-01-25T03:25:23;21.20;15.90;11.80
50589;PMS7003;36547;50.514;30.840;2024-01-25T03:26:26;21.00;19.50;12.00
50589;PMS7003;36547;50.514;30.840;2024-01-25T03:27:29;23.20;20.90;12.80
50589;PMS7003;36547;50.514;30.840;2024-01-25T03:28:31;22.40;22.20;14.60
50589;PMS7003;36547;50.514;30.840;2024-01-25T03:29:35;24.00;23.10;14.90
50589;PMS7003;36547;50.514;30.840;2024-01-25T03:30:38;24.30;22.50;12.90
50589;PMS7003;36547;50.514;30.840;2024-01-25T03:31:40;19.40;19.40;12.90
50589;PMS7003;36547;50.514;30.840;2024-01-25T03:32:43;26.30;23.70;16.10
50589;PMS7003;36547;50.514;30.840;2024-01-25T03:33:48;26.80;23.30;11.10
50589;PMS7003;36547;50.514;30.840;2024-01-25T03:34:50;29.80;26.20;18.50
50589;PMS7003;36547;50.514;30.840;2024-01-25T03:35:53;29.60;26.30;18.30
50589;PMS7003;36547;50.514;30.840;2024-01-25T03:36:56;24.82;24.09;14.45
50589;PMS7003;36547;50.514;30.840;2024-01-25T03:37:58;23.00;20.90;13.10
50589;PMS7003;36547;50.514;30.840;2024-01-25T03:39:00;21.80;21.60;15.10
50589;PMS7003;36547;50.514;30.840;2024-01-25T03:40:03;21.80;21.60;13.80
50589;PMS7003;36547;50.514;30.840;2024-01-25T03:41:07;24.00;23.40;14.00
50589;PMS7003;36547;50.514;30.840;2024-01-25T03:42:10;25.50;24.20;14.50
50589;PMS7003;36547;50.514;30.840;2024-01-25T03:43:12;19.70;18.90;13.40
50589;PMS7003;36547;50.514;30.840;2024-01-25T03:44:16;19.90;19.90;12.40
50589;PMS7003;36547;50.514;30.840;2024-01-25T03:45:19;21.20;20.10;13.10
50589;PMS7003;36547;50.514;30.840;2024-01-25T03:46:22;26.36;25.45;16.45
50589;PMS7003;36547;50.514;30.840;2024-01-25T03:47:24;26.60;24.10;15.20
50589;PMS7003;36547;50.514;30.840;2024-01-25T03:48:27;25.60;24.30;16.50
50589;PMS7003;36547;50.514;30.840;2024-01-25T03:49:30;32.50;28.80;18.40
50589;PMS7003;36547;50.514;30.840;2024-01-25T03:50:32;24.00;22.90;16.70
50589;PMS7003;36547;50.514;30.840;2024-01-25T03:51:34;25.50;24.30;15.70
50589;PMS7003;36547;50.514;30.840;2024-01-25T03:52:36;24.90;23.80;13.60
50589;PMS7003;36547;50.514;30.840;2024-01-25T03:53:39;21.30;20.50;13.20
50589;PMS7003;36547;50.514;30.840;2024-01-25T03:54:42;17.40;17.40;12.30
50589;PMS7003;36547;50.514;30.840;2024-01-25T03:55:44;17.50;16.70;11.00
50589;PMS7003;36547;50.514;30.840;2024-01-25T03:56:46;19.90;19.40;12.60
50589;PMS7003;36547;50.514;30.840;2024-01-25T03:57:49;17.30;15.10;11.10
50589;PMS7003;36547;50.514;30.840;2024-01-25T03:58:52;20.00;17.20;12.80
50589;PMS7003;36547;50.514;30.840;2024-01-25T03:59:54;15.60;15.40;10.70
50589;PMS7003;36547;50.514;30.840;2024-01-25T04:00:57;12.40;12.30;9.30
50589;PMS7003;36547;50.514;30.840;2024-01-25T04:02:00;16.70;16.50;11.80
50589;PMS7003;36547;50.514;30.840;2024-01-25T04:03:02;16.60;15.90;10.60
50589;PMS7003;36547;50.514;30.840;2024-01-25T04:04:04;13.20;13.20;9.10
50589;PMS7003;36547;50.514;30.840;2024-01-25T04:05:07;11.60;11.60;9.20
50589;PMS7003;36547;50.514;30.840;2024-01-25T04:06:10;12.10;11.90;9.10
50589;PMS7003;36547;50.514;30.840;2024-01-25T04:07:13;13.30;13.30;10.60
50589;PMS7003;36547;50.514;30.840;2024-01-25T04:08:15;11.70;11.70;9.00
50589;PMS7003;36547;50.514;30.840;2024-01-25T04:09:18;14.10;12.60;10.20
50589;PMS7003;36547;50.514;30.840;2024-01-25T04:10:22;16.70;14.70;10.50
50589;PMS7003;36547;50.514;30.840;2024-01-25T04:11:24;13.10;13.10;9.80
50589;PMS7003;36547;50.514;30.840;2024-01-25T04:12:28;14.70;13.90;9.20
50589;PMS7003;36547;50.514;30.840;2024-01-25T04:13:31;13.50;12.70;10.10
50589;PMS7003;36547;50.514;30.840;2024-01-25T04:14:33;12.20;12.20;8.10
50589;PMS7003;36547;50.514;30.840;2024-01-25T04:15:35;14.10;13.10;9.50
50589;PMS7003;36547;50.514;30.840;2024-01-25T04:16:38;10.91;10.73;9.09
50589;PMS7003;36547;50.514;30.840;2024-01-25T04:17:41;14.90;14.90;11.50
50589;PMS7003;36547;50.514;30.840;2024-01-25T04:18:43;12.60;12.60;9.50
50589;PMS7003;36547;50.514;30.840;2024-01-25T04:19:45;12.10;12.10;9.80
50589;PMS7003;36547;50.514;30.840;2024-01-25T04:20:48;11.60;11.60;9.50
50589;PMS7003;36547;50.514;30.840;2024-01-25T04:21:52;12.90;12.90;9.10
50589;PMS7003;36547;50.514;30.840;2024-01-25T04:22:54;13.80;13.50;11.40
50589;PMS7003;36547;50.514;30.840;2024-01-25T04:23:57;17.40;17.40;10.70
50589;PMS7003;36547;50.514;30.840;2024-01-25T04:24:59;14.70;13.30;9.00
50589;PMS7003;36547;50.514;30.840;2024-01-25T04:26:01;12.70;12.70;10.20
50589;PMS7003;36547;50.514;30.840;2024-01-25T04:27:04;13.60;13.40;9.90
50589;PMS7003;36547;50.514;30.840;2024-01-25T04:28:07;15.10;11.50;8.50
50589;PMS7003;36547;50.514;30.840;2024-01-25T04:29:09;12.40;12.40;9.90
50589;PMS7003;36547;50.514;30.840;2024-01-25T04:30:11;11.90;11.90;10.10
50589;PMS7003;36547;50.514;30.840;2024-01-25T04:31:14;13.20;13.20;8.40
50589;PMS7003;36547;50.514;30.840;2024-01-25T04:32:17;16.20;15.10;10.00
50589;PMS7003;36547;50.514;30.840;2024-01-25T04:33:19;15.60;14.50;9.50
50589;PMS7003;36547;50.514;30.840;2024-01-25T04:34:21;13.70;13.10;8.60
50589;PMS7003;36547;50.514;30.840;2024-01-25T04:35:24;13.18;13.18;8.64
50589;PMS7003;36547;50.514;30.840;2024-01-25T04:36:28;14.20;12.70;9.70
50589;PMS7003;36547;50.514;30.840;2024-01-25T04:37:31;12.00;11.80;8.80
50589;PMS7003;36547;50.514;30.840;2024-01-25T04:38:33;14.20;14.20;10.50
50589;PMS7003;36547;50.514;30.840;2024-01-25T04:39:36;14.40;14.20;10.10
50589;PMS7003;36547;50.514;30.840;2024-01-25T04:40:39;14.30;14.30;10.00
50589;PMS7003;36547;50.514;30.840;2024-01-25T04:41:41;11.30;11.30;9.00
50589;PMS7003;36547;50.514;30.840;2024-01-25T04:42:43;16.20;15.60;10.80
50589;PMS7003;36547;50.514;30.840;2024-01-25T04:43:46;14.40;13.40;9.90
50589;PMS7003;36547;50.514;30.840;2024-01-25T04:44:49;13.30;12.60;9.10
50589;PMS7003;36547;50.514;30.840;2024-01-25T04:45:51;14.80;14.50;10.90
50589;PMS7003;36547;50.514;30.840;2024-01-25T04:46:54;14.30;13.30;10.60
50589;PMS7003;36547;50.514;30.840;2024-01-25T04:47:57;17.20;14.70;10.30
50589;PMS7003;36547;50.514;30.840;2024-01-25T04:48:59;16.20;15.40;10.70
50589;PMS7003;36547;50.514;30.840;2024-01-25T04:50:02;14.90;14.90;10.60
50589;PMS7003;36547;50.514;30.840;2024-01-25T04:51:05;15.36;14.64;10.09
50589;PMS7003;36547;50.514;30.840;2024-01-25T04:52:08;17.64;15.55;9.27
50589;PMS7003;36547;50.514;30.840;2024-01-25T04:53:10;14.50;13.90;10.00
50589;PMS7003;36547;50.514;30.840;2024-01-25T04:54:13;16.20;15.90;10.50
50589;PMS7003;36547;50.514;30.840;2024-01-25T04:55:15;14.30;14.30;10.20
50589;PMS7003;36547;50.514;30.840;2024-01-25T04:56:19;15.40;15.10;11.10
50589;PMS7003;36547;50.514;30.840;2024-01-25T04:57:22;14.40;14.40;10.50
50589;PMS7003;36547;50.514;30.840;2024-01-25T04:58:25;15.60;15.40;10.50
50589;PMS7003;36547;50.514;30.840;2024-01-25T04:59:27;12.70;12.70;9.70
50589;PMS7003;36547;50.514;30.840;2024-01-25T05:00:31;13.80;12.60;8.90
50589;PMS7003;36547;50.514;30.840;2024-01-25T05:01:33;11.40;11.40;8.50
50589;PMS7003;36547;50.514;30.840;2024-01-25T05:02:36;13.40;13.40;10.00
50589;PMS7003;36547;50.514;30.840;2024-01-25T05:03:38;10.50;10.00;8.00
50589;PMS7003;36547;50.514;30.840;2024-01-25T05:04:42;14.30;14.30;9.80
50589;PMS7003;36547;50.514;30.840;2024-01-25T05:05:46;11.80;11.70;9.20
50589;PMS7003;36547;50.514;30.840;2024-01-25T05:06:49;16.00;15.27;10.36
50589;PMS7003;36547;50.514;30.840;2024-01-25T05:07:51;18.50;18.00;11.80
50589;PMS7003;36547;50.514;30.840;2024-01-25T05:08:54;20.40;19.20;12.70
50589;PMS7003;36547;50.514;30.840;2024-01-25T05:09:56;19.50;19.10;13.00
50589;PMS7003;36547;50.514;30.840;2024-01-25T05:10:59;19.40;19.00;11.90
50589;PMS7003;36547;50.514;30.840;2024-01-25T05:12:03;21.10;19.90;13.00
50589;PMS7003;36547;50.514;30.840;2024-01-25T05:13:05;21.60;20.30;14.30
50589;PMS7003;36547;50.514;30.840;2024-01-25T05:14:08;19.20;19.10;12.80
50589;PMS7003;36547;50.514;30.840;2024-01-25T05:15:10;18.90;17.80;11.40
50589;PMS7003;36547;50.514;30.840;2024-01-25T05:16:14;24.20;21.70;15.10
50589;PMS7003;36547;50.514;30.840;2024-01-25T05:17:16;16.20;16.20;11.70
50589;PMS7003;36547;50.514;30.840;2024-01-25T05:18:18;16.70;15.80;10.60
50589;PMS7003;36547;50.514;30.840;2024-01-25T05:19:21;19.10;17.90;11.10
50589;PMS7003;36547;50.514;30.840;2024-01-25T05:20:24;18.64;15.91;11.91
50589;PMS7003;36547;50.514;30.840;2024-01-25T05:21:27;17.91;17.36;13.45
50589;PMS7003;36547;50.514;30.840;2024-01-25T05:22:29;16.00;15.80;12.00
50589;PMS7003;36547;50.514;30.840;2024-01-25T05:23:31;17.30;16.90;11.30
50589;PMS7003;36547;50.514;30.840;2024-01-25T05:24:33;18.00;18.00;12.90
50589;PMS7003;36547;50.514;30.840;2024-01-25T05:25:36;15.60;15.10;11.20
50589;PMS7003;36547;50.514;30.840;2024-01-25T05:26:39;17.91;17.36;11.45
50589;PMS7003;36547;50.514;30.840;2024-01-25T05:27:41;17.60;17.40;11.80
50589;PMS7003;36547;50.514;30.840;2024-01-25T05:28:43;17.90;15.40;10.50
50589;PMS7003;36547;50.514;30.840;2024-01-25T05:29:46;18.90;18.70;12.60
50589;PMS7003;36547;50.514;30.840;2024-01-25T05:30:48;19.33;18.67;12.22
50589;PMS7003;36547;50.514;30.840;2024-01-25T05:31:50;16.70;15.80;12.00
50589;PMS7003;36547;50.514;30.840;2024-01-25T05:32:53;17.40;17.40;12.00
50589;PMS7003;36547;50.514;30.840;2024-01-25T05:33:55;17.60;16.80;11.00
50589;PMS7003;36547;50.514;30.840;2024-01-25T05:34:58;19.80;18.70;11.80
50589;PMS7003;36547;50.514;30.840;2024-01-25T05:36:01;17.10;17.10;12.90
50589;PMS7003;36547;50.514;30.840;2024-01-25T05:37:03;18.60;17.20;12.70
50589;PMS7003;36547;50.514;30.840;2024-01-25T05:38:06;17.80;17.80;12.60
50589;PMS7003;36547;50.514;30.840;2024-01-25T05:39:10;15.00;15.00;11.00
50589;PMS7003;36547;50.514;30.840;2024-01-25T05:40:13;14.30;14.30;11.00
50589;PMS7003;36547;50.514;30.840;2024-01-25T05:41:16;18.20;17.40;11.30
50589;PMS7003;36547;50.514;30.840;2024-01-25T05:42:19;13.50;13.50;10.40
50589;PMS7003;36547;50.514;30.840;2024-01-25T05:43:21;15.10;13.90;11.00
50589;PMS7003;36547;50.514;30.840;2024-01-25T05:44:24;15.60;15.00;10.50
50589;PMS7003;36547;50.514;30.840;2024-01-25T05:45:26;12.90;12.10;10.10
50589;PMS7003;36547;50.514;30.840;2024-01-25T05:46:29;12.27;11.91;9.36
50589;PMS7003;36547;50.514;30.840;2024-01-25T05:47:32;14.90;12.90;9.00
50589;PMS7003;36547;50.514;30.840;2024-01-25T05:48:35;12.50;12.10;8.00
50589;PMS7003;36547;50.514;30.840;2024-01-25T05:49:37;15.60;15.20;11.10
50589;PMS7003;36547;50.514;30.840;2024-01-25T05:50:40;17.20;17.10;11.40
50589;PMS7003;36547;50.514;30.840;2024-01-25T05:51:42;16.80;16.00;10.70